Bull Sumatera — YBVV2 — position and weather

sailwx.info

Track history (hours):
 
Tides and Currents Weather Stations Pressure Air Temp Water Temp Dewpoint Dewpoint Depression Visibility Wind Speed Wind Dir Waves Ship Positions

Bull Sumatera

Last reported at 2018-Apr-17 05:20 UTC. Time now 2018-Apr-26 23:08 UTC.
Position N 01°15' E 104°03'.
Warning: this ship's position is 9 days out of date.

Length 241 m; draft 11.1 m.

Type: Ship. MMSI: 525107006.

Date/timePositionNaut miles runAvg speedWind from/ knotsBaromVisibWave heightAir tempDewpointWater temp
2018-Apr-17 05:20N 01°15' E 104°03'3 9.7
2018-Apr-17 04:59N 01°14' E 104°00'5 9.8
2018-Apr-17 04:29N 01°13' E 103°55'5 9.5
2018-Apr-17 04:00N 01°11' E 103°51'4 8.9
2018-Apr-17 03:30N 01°09' E 103°47'5 9.2
2018-Apr-17 02:59N 01°06' E 103°44'4 8.9
2018-Apr-17 02:30N 01°03' E 103°40'4 8.3
2018-Apr-17 01:58N 01°04' E 103°36'510.1
2018-Apr-17 01:28N 01°07' E 103°32'4 8.9
2018-Apr-17 01:00N 01°11' E 103°33'4 7.6
2018-Apr-17 00:30N 01°15' E 103°34'1 0.3
2018-Apr-16 20:54N 01°15' E 103°35'0 0.0
2018-Apr-16 18:09N 01°15' E 103°35'0 0.0
2018-Apr-16 11:33N 01°16' E 103°35'0 0.1
2018-Apr-16 11:29N 01°16' E 103°35'0 0.0
2018-Apr-16 10:47N 01°16' E 103°35'0 0.1
2018-Apr-16 10:30N 01°16' E 103°35'0 0.0
2018-Apr-16 09:59N 01°16' E 103°35'0 0.1
2018-Apr-16 09:26N 01°15' E 103°35'0 0.1
2018-Apr-16 08:53N 01°15' E 103°35'0 0.2
2018-Apr-16 08:23N 01°16' E 103°35'0 0.1
2018-Apr-16 06:41N 01°16' E 103°35'0 0.1
2018-Apr-16 06:23N 01°16' E 103°35'0 0.0
2018-Apr-16 05:50N 01°16' E 103°35'0 0.3
2018-Apr-16 05:29N 01°16' E 103°35'0 0.2
2018-Apr-16 04:56N 01°15' E 103°35'0 0.2
2018-Apr-16 04:17N 01°15' E 103°35'0 0.1
2018-Apr-16 03:56N 01°15' E 103°35'0 0.1
2018-Apr-16 03:26N 01°16' E 103°35'0 0.2
2018-Apr-16 02:56N 01°16' E 103°35'0 0.1
2018-Apr-16 02:14N 01°16' E 103°35'0 0.2
2018-Apr-16 01:47N 01°16' E 103°35'0 0.2
2018-Apr-16 01:29N 01°16' E 103°35'0 0.1
2018-Apr-16 00:41N 01°16' E 103°35'0 0.0
2018-Apr-16 00:26N 01°16' E 103°35'0 0.0
2018-Apr-15 23:56N 01°16' E 103°35'0 0.1
2018-Apr-15 23:23N 01°16' E 103°35'0 0.1
2018-Apr-15 22:56N 01°16' E 103°35'0 0.1
2018-Apr-15 22:26N 01°16' E 103°35'0 0.1
2018-Apr-15 21:56N 01°15' E 103°35'0 0.0
2018-Apr-15 21:26N 01°15' E 103°35'0 0.1
2018-Apr-15 20:59N 01°15' E 103°35'0 0.1
2018-Apr-15 20:29N 01°15' E 103°35'0 0.1
2018-Apr-15 19:59N 01°15' E 103°35'0 0.0
2018-Apr-15 19:29N 01°15' E 103°35'0 0.0
2018-Apr-15 18:59N 01°15' E 103°35'0 0.1
2018-Apr-15 18:29N 01°15' E 103°35'0 0.0
2018-Apr-15 17:59N 01°15' E 103°35'0 0.0
2018-Apr-15 17:29N 01°15' E 103°35'0 0.0
2018-Apr-15 16:56N 01°15' E 103°35'0 0.1
2018-Apr-15 16:29N 01°15' E 103°35'0 0.1
2018-Apr-15 15:53N 01°15' E 103°35'0 0.1
2018-Apr-15 15:14N 01°16' E 103°35'0 0.1
2018-Apr-15 14:41N 01°16' E 103°35'0 0.1
2018-Apr-15 14:26N 01°16' E 103°35'0 0.1
2018-Apr-15 13:26N 01°16' E 103°35'0 0.1
2018-Apr-15 12:29N 01°16' E 103°35'0 0.0
2018-Apr-15 11:59N 01°16' E 103°35'0 0.3
2018-Apr-15 11:29N 01°16' E 103°35'0 0.2
2018-Apr-15 10:59N 01°16' E 103°35'0 0.1
2018-Apr-15 10:20N 01°15' E 103°35'0 0.1
2018-Apr-15 09:56N 01°15' E 103°35'0 0.0
2018-Apr-15 09:29N 01°15' E 103°35'0 0.0
2018-Apr-15 08:59N 01°15' E 103°35'0 0.1
2018-Apr-15 08:29N 01°15' E 103°35'0 0.1
2018-Apr-15 07:59N 01°15' E 103°35'0 0.1
2018-Apr-15 07:29N 01°15' E 103°35'0 0.2
2018-Apr-15 06:59N 01°15' E 103°35'0 0.0
2018-Apr-15 06:26N 01°15' E 103°35'0 0.0
2018-Apr-15 05:59N 01°15' E 103°35'0 0.0
2018-Apr-15 05:29N 01°15' E 103°35'0 0.0
2018-Apr-15 04:59N 01°15' E 103°35'0 0.0
2018-Apr-15 04:29N 01°15' E 103°35'0 0.0
2018-Apr-15 03:38N 01°15' E 103°35'0 0.1
2018-Apr-15 03:29N 01°15' E 103°35'0 0.1
2018-Apr-15 02:32N 01°16' E 103°35'0 1.2
2018-Apr-15 02:29N 01°16' E 103°35'0 0.1
2018-Apr-15 01:59N 01°16' E 103°35'0 0.1
2018-Apr-15 01:29N 01°16' E 103°35'0 0.1
2018-Apr-15 00:53N 01°16' E 103°35'0 0.2
2018-Apr-15 00:11N 01°16' E 103°35'0 0.1
2018-Apr-14 23:41N 01°16' E 103°35'0 0.0
2018-Apr-14 23:29N 01°16' E 103°35'0 0.1
2018-Apr-14 22:59N 01°16' E 103°35'0 0.2
2018-Apr-14 22:29N 01°16' E 103°35'0 0.1
2018-Apr-14 21:59N 01°16' E 103°35'0 0.1
2018-Apr-14 21:29N 01°16' E 103°35'0 0.1
2018-Apr-14 20:59N 01°16' E 103°35'0 0.1
2018-Apr-14 20:26N 01°15' E 103°35'0 0.1
2018-Apr-14 19:47N 01°15' E 103°35'0 0.2
2018-Apr-14 19:29N 01°15' E 103°35'0 0.0
2018-Apr-14 18:50N 01°15' E 103°35'0 0.0
2018-Apr-14 18:23N 01°15' E 103°35'0 0.2
2018-Apr-14 17:59N 01°15' E 103°35'0 0.0
2018-Apr-14 17:23N 01°15' E 103°35'0 0.0
2018-Apr-14 16:59N 01°15' E 103°35'0 0.0
2018-Apr-14 16:29N 01°15' E 103°35'0 0.1
2018-Apr-14 15:56N 01°15' E 103°35'0 0.0
2018-Apr-14 15:29N 01°15' E 103°35'0 0.1
2018-Apr-14 14:59N 01°15' E 103°35'0 0.1
2018-Apr-14 14:05N 01°16' E 103°35'0 0.1
2018-Apr-14 13:44N 01°16' E 103°35'0 0.1
2018-Apr-14 13:29N 01°16' E 103°35'0 0.1
2018-Apr-14 12:56N 01°16' E 103°35'0 0.1
2018-Apr-14 12:29N 01°16' E 103°35'0 0.1
2018-Apr-14 11:59N 01°16' E 103°35'0 0.0
2018-Apr-14 11:29N 01°16' E 103°35'0 0.1
2018-Apr-14 10:56N 01°16' E 103°35'0 0.1
2018-Apr-14 10:29N 01°16' E 103°35'0 0.1
2018-Apr-14 09:50N 01°15' E 103°35'0 0.2
2018-Apr-14 09:17N 01°15' E 103°35'0 0.2
2018-Apr-14 08:38N 01°15' E 103°35'0 0.3
2018-Apr-14 08:23N 01°15' E 103°35'0 0.2
2018-Apr-14 07:59N 01°15' E 103°35'0 0.1
2018-Apr-14 07:29N 01°16' E 103°35'0 0.0
2018-Apr-14 06:53N 01°16' E 103°35'0 0.0
2018-Apr-14 05:41N 01°15' E 103°35'0 0.3
2018-Apr-14 05:29N 01°15' E 103°35'0 0.0
2018-Apr-14 04:56N 01°15' E 103°35'0 0.0
2018-Apr-14 04:29N 01°15' E 103°35'0 0.0
2018-Apr-14 03:59N 01°15' E 103°35'0 0.0
2018-Apr-14 03:29N 01°15' E 103°35'0 0.0
2018-Apr-14 02:47N 01°15' E 103°35'0 0.1
2018-Apr-13 23:56N 01°16' E 103°35'0 0.1
2018-Apr-13 22:32N 01°16' E 103°35'0 0.1
2018-Apr-13 22:29N 01°16' E 103°35'0 0.1
2018-Apr-13 21:44N 01°16' E 103°35'0 0.1
2018-Apr-13 21:02N 01°16' E 103°35'0 0.0
2018-Apr-13 20:56N 01°16' E 103°35'0 0.0
2018-Apr-13 20:29N 01°16' E 103°35'0 0.0
2018-Apr-13 19:44N 01°16' E 103°35'0 0.0
2018-Apr-13 19:11N 01°16' E 103°35'0 0.1
2018-Apr-13 18:56N 01°15' E 103°35'0 0.1
2018-Apr-13 18:29N 01°15' E 103°35'0 0.1
2018-Apr-13 17:50N 01°15' E 103°35'0 0.0
2018-Apr-13 17:26N 01°15' E 103°35'0 0.0
2018-Apr-13 16:53N 01°15' E 103°35'0 0.0
2018-Apr-13 16:17N 01°15' E 103°35'0 0.2
2018-Apr-13 15:56N 01°15' E 103°35'0 0.0
2018-Apr-13 15:23N 01°15' E 103°35'0 0.0
2018-Apr-13 14:41N 01°15' E 103°35'0 0.0
2018-Apr-13 14:26N 01°15' E 103°35'0 0.0
2018-Apr-13 13:59N 01°15' E 103°35'0 0.0
2018-Apr-13 13:29N 01°15' E 103°35'0 0.2
2018-Apr-13 12:53N 01°15' E 103°35'0 0.1
2018-Apr-13 11:23N 01°16' E 103°35'0 0.0
2018-Apr-13 10:56N 01°16' E 103°35'0 0.0
2018-Apr-13 10:29N 01°16' E 103°35'0 0.0
2018-Apr-13 09:38N 01°16' E 103°35'0 0.1
2018-Apr-13 09:26N 01°16' E 103°35'0 0.0
2018-Apr-13 08:29N 01°16' E 103°35'0 0.1
2018-Apr-13 07:11N 01°16' E 103°35'0 0.1
2018-Apr-13 06:44N 01°16' E 103°35'0 0.1
2018-Apr-13 06:29N 01°16' E 103°35'0 0.2
2018-Apr-13 05:59N 01°16' E 103°35'0 0.2
2018-Apr-13 05:20N 01°15' E 103°35'0 0.2
2018-Apr-13 04:59N 01°15' E 103°35'0 0.5
2018-Apr-13 04:30N 01°15' E 103°35'2 3.5
2018-Apr-13 04:00N 01°14' E 103°34'3 5.0
2018-Apr-13 03:30N 01°12' E 103°33'3 5.3
2018-Apr-13 03:00N 01°10' E 103°31'0 0.2
2018-Apr-13 02:30N 01°10' E 103°31'0 0.8
2018-Apr-13 01:57N 01°10' E 103°31'1 2.2
2018-Apr-13 01:30N 01°10' E 103°32'3 5.5
2018-Apr-13 01:00N 01°10' E 103°35'4 8.3
2018-Apr-13 00:30N 01°11' E 103°39'2 4.9
2018-Apr-13 00:00N 01°10' E 103°41'3 5.2
2018-Apr-12 23:30N 01°08' E 103°44'3 6.6
2018-Apr-12 23:00N 01°10' E 103°47'611.5
2018-Apr-12 22:30N 01°12' E 103°52'4 7.9
2018-Apr-12 22:00N 01°15' E 103°55'0 0.1
2018-Apr-12 15:02N 01°15' E 103°54'0 0.0
2018-Apr-12 14:47N 01°15' E 103°54'0 0.0
2018-Apr-12 13:50N 01°15' E 103°54'0 0.0
2018-Apr-12 13:29N 01°15' E 103°54'0 0.0
2018-Apr-12 11:59N 01°15' E 103°54'0 0.0
2018-Apr-12 09:29N 01°15' E 103°54'0 0.1
2018-Apr-12 08:05N 01°15' E 103°54'0 0.0
2018-Apr-12 07:59N 01°15' E 103°54'0 0.1
2018-Apr-12 07:20N 01°15' E 103°54'0 0.0
2018-Apr-12 06:53N 01°15' E 103°54'0 0.0
2018-Apr-12 06:26N 01°15' E 103°54'0 0.1
2018-Apr-12 05:41N 01°15' E 103°54'0 0.0
2018-Apr-12 05:29N 01°15' E 103°54'0 0.0
2018-Apr-12 04:50N 01°15' E 103°54'0 0.0
2018-Apr-12 04:29N 01°15' E 103°54'0 0.0
2018-Apr-12 03:11N 01°15' E 103°54'0 0.1
2018-Apr-12 02:56N 01°15' E 103°54'0 0.2
2018-Apr-12 02:20N 01°15' E 103°54'0 0.3
2018-Apr-12 01:53N 01°15' E 103°54'0 0.3
2018-Apr-12 01:30N 01°15' E 103°54'3 5.5
2018-Apr-12 00:59N 01°13' E 103°52'4 8.2
2018-Apr-12 00:30N 01°12' E 103°48'4 8.0
2018-Apr-12 00:00N 01°15' E 103°45'4 8.2
2018-Apr-11 23:30N 01°13' E 103°41'3 6.9
2018-Apr-11 23:00N 01°15' E 103°39'3 5.9
2018-Apr-11 22:31N 01°18' E 103°41'0 0.5
2018-Apr-11 21:57N 01°18' E 103°41'0 0.0
2018-Apr-11 21:30N 01°18' E 103°41'0 0.0
2018-Apr-11 20:54N 01°18' E 103°41'0 0.0
2018-Apr-11 20:30N 01°18' E 103°41'0 0.0
2018-Apr-11 19:54N 01°18' E 103°41'0 0.0
2018-Apr-11 19:18N 01°18' E 103°41'0 0.0
2018-Apr-11 18:51N 01°18' E 103°41'0 0.0
2018-Apr-11 18:30N 01°18' E 103°41'0 0.0
2018-Apr-11 17:57N 01°18' E 103°41'0 0.0
2018-Apr-11 17:30N 01°18' E 103°41'0 0.0
2018-Apr-11 16:51N 01°18' E 103°41'0 0.0
2018-Apr-11 16:30N 01°18' E 103°41'0 0.0
2018-Apr-11 15:57N 01°18' E 103°41'0 0.0
2018-Apr-11 15:30N 01°18' E 103°41'0 0.0
2018-Apr-11 14:57N 01°18' E 103°41'0 0.0
2018-Apr-11 14:27N 01°18' E 103°41'0 0.0
2018-Apr-11 13:54N 01°18' E 103°41'0 0.0
2018-Apr-11 13:30N 01°18' E 103°41'0 0.0
2018-Apr-11 12:51N 01°18' E 103°41'0 0.0
2018-Apr-11 12:30N 01°18' E 103°41'0 0.0
2018-Apr-11 11:54N 01°18' E 103°41'0 0.0
2018-Apr-11 11:27N 01°18' E 103°41'0 0.0
2018-Apr-11 10:57N 01°18' E 103°41'0 0.0
2018-Apr-11 10:30N 01°18' E 103°41'0 0.0
2018-Apr-11 09:57N 01°18' E 103°41'0 0.0
2018-Apr-11 09:18N 01°18' E 103°41'0 0.0
2018-Apr-11 08:57N 01°18' E 103°41'0 0.0
2018-Apr-11 08:30N 01°18' E 103°41'0 0.0
2018-Apr-11 07:42N 01°18' E 103°41'0 0.0
2018-Apr-11 07:30N 01°18' E 103°41'0 0.0
2018-Apr-11 06:48N 01°18' E 103°41'0 0.0
2018-Apr-11 06:27N 01°18' E 103°41'0 0.0
2018-Apr-11 05:57N 01°18' E 103°41'0 0.0
2018-Apr-11 05:18N 01°18' E 103°41'0 0.0
2018-Apr-11 04:57N 01°18' E 103°41'0 0.0
2018-Apr-11 04:24N 01°18' E 103°41'0 0.0
2018-Apr-11 03:54N 01°18' E 103°41'0 0.0
2018-Apr-11 03:30N 01°18' E 103°41'0 0.0
2018-Apr-11 02:57N 01°18' E 103°41'0 0.0
2018-Apr-11 02:27N 01°18' E 103°41'0 0.0
2018-Apr-11 01:57N 01°18' E 103°41'0 0.0
2018-Apr-11 01:30N 01°18' E 103°41'0 0.0
2018-Apr-11 00:57N 01°18' E 103°41'0 0.0
2018-Apr-11 00:30N 01°18' E 103°41'0 0.0
2018-Apr-10 23:57N 01°18' E 103°41'0 0.0
2018-Apr-10 23:30N 01°18' E 103°41'0 0.0
2018-Apr-10 22:57N 01°18' E 103°41'0 0.0
2018-Apr-10 22:30N 01°18' E 103°41'0 0.0
2018-Apr-10 21:57N 01°18' E 103°41'0 0.0
2018-Apr-10 21:30N 01°18' E 103°41'0 0.0
2018-Apr-10 20:57N 01°18' E 103°41'0 0.0
2018-Apr-10 20:30N 01°18' E 103°41'0 0.0
2018-Apr-10 19:57N 01°18' E 103°41'0 0.0
2018-Apr-10 19:30N 01°18' E 103°41'0 0.0
2018-Apr-10 18:57N 01°18' E 103°41'0 0.0
2018-Apr-10 18:30N 01°18' E 103°41'0 0.0
2018-Apr-10 17:57N 01°18' E 103°41'0 0.0
2018-Apr-10 17:30N 01°18' E 103°41'0 0.0
2018-Apr-10 16:57N 01°18' E 103°41'0 0.0
2018-Apr-10 16:30N 01°18' E 103°41'0 0.0
2018-Apr-10 15:54N 01°18' E 103°41'0 0.0
2018-Apr-10 15:24N 01°18' E 103°41'0 0.0
2018-Apr-10 14:57N 01°18' E 103°41'0 0.0
2018-Apr-10 14:30N 01°18' E 103°41'0 0.0
2018-Apr-10 13:57N 01°18' E 103°41'0 0.0
2018-Apr-10 13:30N 01°18' E 103°41'0 0.0
2018-Apr-10 12:57N 01°18' E 103°41'0 0.0
2018-Apr-10 12:30N 01°18' E 103°41'0 0.0
2018-Apr-10 11:57N 01°18' E 103°41'0 0.0
2018-Apr-10 11:27N 01°18' E 103°41'0 0.0
2018-Apr-10 10:51N 01°18' E 103°41'0 0.0
2018-Apr-10 10:30N 01°18' E 103°41'0 0.0
2018-Apr-10 09:48N 01°18' E 103°41'0 0.0
2018-Apr-10 09:30N 01°18' E 103°41'0 0.0
2018-Apr-10 08:57N 01°18' E 103°41'0 0.0
2018-Apr-10 08:30N 01°18' E 103°41'0 0.0
2018-Apr-10 07:57N 01°18' E 103°41'0 0.0
2018-Apr-10 07:27N 01°18' E 103°41'0 0.0
2018-Apr-10 06:54N 01°18' E 103°41'0 0.0
2018-Apr-10 06:30N 01°18' E 103°41'0 0.0
2018-Apr-10 05:57N 01°18' E 103°41'0 0.0
2018-Apr-10 05:27N 01°18' E 103°41'0 0.0
2018-Apr-10 04:57N 01°18' E 103°41'0 0.0
2018-Apr-10 04:27N 01°18' E 103°41'0 0.0
2018-Apr-10 03:57N 01°18' E 103°41'0 0.0
2018-Apr-10 03:30N 01°18' E 103°41'0 0.0
2018-Apr-10 02:58N 01°18' E 103°41'0 0.0
2018-Apr-10 02:28N 01°18' E 103°41'0 0.0
2018-Apr-10 01:55N 01°18' E 103°41'0 0.0
2018-Apr-10 01:25N 01°18' E 103°41'0 0.0
2018-Apr-10 00:58N 01°18' E 103°41'0 0.0
2018-Apr-10 00:25N 01°18' E 103°41'0 0.0
2018-Apr-09 23:55N 01°18' E 103°41'0 0.0
2018-Apr-09 23:28N 01°18' E 103°41'0 0.0
2018-Apr-09 22:58N 01°18' E 103°41'0 0.0
2018-Apr-09 22:19N 01°18' E 103°41'0 0.0
2018-Apr-09 21:58N 01°18' E 103°41'0 0.0
2018-Apr-09 21:25N 01°18' E 103°41'0 0.0
2018-Apr-09 20:55N 01°18' E 103°41'0 0.0
2018-Apr-09 20:25N 01°18' E 103°41'0 0.0
2018-Apr-09 19:58N 01°18' E 103°41'0 0.0
2018-Apr-09 19:25N 01°18' E 103°41'0 0.0
2018-Apr-09 18:58N 01°18' E 103°41'0 0.0
2018-Apr-09 18:25N 01°18' E 103°41'0 0.1
2018-Apr-09 18:01N 01°18' E 103°41'1 2.2
2018-Apr-09 17:31N 01°17' E 103°40'2 4.1
2018-Apr-09 17:00N 01°15' E 103°39'3 5.9
2018-Apr-09 16:30N 01°12' E 103°39'3 5.9
2018-Apr-09 16:01N 01°10' E 103°41'510.2
2018-Apr-09 15:29N 01°10' E 103°47'612.3
2018-Apr-09 15:00N 01°13' E 103°52'5 9.3
2018-Apr-09 14:31N 01°15' E 103°56'1 0.6
2018-Apr-09 12:56N 01°15' E 103°55'0 0.0
2018-Apr-09 05:26N 01°15' E 103°55'0 0.0
2018-Apr-09 02:05N 01°15' E 103°55'0 0.0
2018-Apr-09 01:59N 01°15' E 103°55'0 0.0
2018-Apr-09 01:26N 01°15' E 103°55'0 0.0
2018-Apr-09 00:50N 01°15' E 103°55'0 0.1
2018-Apr-08 23:44N 01°15' E 103°55'0 0.2
2018-Apr-08 23:29N 01°15' E 103°55'0 0.0
2018-Apr-08 17:01N 01°15' E 103°55'0 0.0
2018-Apr-08 16:41N 01°15' E 103°55'0 0.0
2018-Apr-08 09:55N 01°15' E 103°55'0 0.1
2018-Apr-08 09:25N 01°15' E 103°55'0 0.1
2018-Apr-08 08:59N 01°15' E 103°55'0 0.0
2018-Apr-08 08:28N 01°15' E 103°55'0 0.0
2018-Apr-08 07:55N 01°15' E 103°55'0 0.0
2018-Apr-08 07:16N 01°15' E 103°55'0 0.1
2018-Apr-08 06:46N 01°15' E 103°55'0 0.2
2018-Apr-08 06:28N 01°15' E 103°55'0 0.2
2018-Apr-08 05:55N 01°15' E 103°55'0 0.1
2018-Apr-08 05:22N 01°16' E 103°55'0 0.0
2018-Apr-08 04:37N 01°15' E 103°55'0 0.1
2018-Apr-08 04:10N 01°15' E 103°55'0 0.0
2018-Apr-08 03:49N 01°15' E 103°55'0 0.1
2018-Apr-08 03:23N 01°15' E 103°55'0 0.2
2018-Apr-08 02:59N 01°15' E 103°55'0 0.0
2018-Apr-08 02:23N 01°15' E 103°55'0 0.2
2018-Apr-08 01:59N 01°15' E 103°55'0 0.0
2018-Apr-08 00:35N 01°15' E 103°55'0 0.6
2018-Apr-08 00:29N 01°15' E 103°55'0 0.0
2018-Apr-07 23:59N 01°15' E 103°55'0 0.0
2018-Apr-07 23:29N 01°15' E 103°55'0 0.0
2018-Apr-07 22:50N 01°15' E 103°55'0 0.0
2018-Apr-07 22:29N 01°15' E 103°55'0 0.1
2018-Apr-07 21:41N 01°15' E 103°55'0 0.0
2018-Apr-07 21:23N 01°15' E 103°55'0 0.0
2018-Apr-07 15:56N 01°15' E 103°55'0 0.0
2018-Apr-07 09:17N 01°15' E 103°55'0 0.1
2018-Apr-07 08:56N 01°15' E 103°55'0 0.0
2018-Apr-07 08:14N 01°16' E 103°55'0 0.1
2018-Apr-07 07:17N 01°16' E 103°55'0 0.1
2018-Apr-07 06:11N 01°16' E 103°55'  
Track history (hours):
 
Tides and Currents Weather Stations Pressure Air Temp Water Temp Dewpoint Dewpoint Depression Visibility Wind Speed Wind Dir Waves Ship Positions

Bull Sumatera

Last reported at 2018-Apr-17 05:20 UTC. Time now 2018-Apr-26 23:08 UTC.
Position N 01°15' E 104°03'.
Warning: this ship's position is 9 days out of date.

Length 241 m; draft 11.1 m.

Type: Ship. MMSI: 525107006.

Date/timePositionNaut miles runAvg speedWind from/ knotsBaromVisibWave heightAir tempDewpointWater temp
2018-Apr-17 05:20N 01°15' E 104°03'3 9.7
2018-Apr-17 04:59N 01°14' E 104°00'5 9.8
2018-Apr-17 04:29N 01°13' E 103°55'5 9.5
2018-Apr-17 04:00N 01°11' E 103°51'4 8.9
2018-Apr-17 03:30N 01°09' E 103°47'5 9.2
2018-Apr-17 02:59N 01°06' E 103°44'4 8.9
2018-Apr-17 02:30N 01°03' E 103°40'4 8.3
2018-Apr-17 01:58N 01°04' E 103°36'510.1
2018-Apr-17 01:28N 01°07' E 103°32'4 8.9
2018-Apr-17 01:00N 01°11' E 103°33'4 7.6
2018-Apr-17 00:30N 01°15' E 103°34'1 0.3
2018-Apr-16 20:54N 01°15' E 103°35'0 0.0
2018-Apr-16 18:09N 01°15' E 103°35'0 0.0
2018-Apr-16 11:33N 01°16' E 103°35'0 0.1
2018-Apr-16 11:29N 01°16' E 103°35'0 0.0
2018-Apr-16 10:47N 01°16' E 103°35'0 0.1
2018-Apr-16 10:30N 01°16' E 103°35'0 0.0
2018-Apr-16 09:59N 01°16' E 103°35'0 0.1
2018-Apr-16 09:26N 01°15' E 103°35'0 0.1
2018-Apr-16 08:53N 01°15' E 103°35'0 0.2
2018-Apr-16 08:23N 01°16' E 103°35'0 0.1
2018-Apr-16 06:41N 01°16' E 103°35'0 0.1
2018-Apr-16 06:23N 01°16' E 103°35'0 0.0
2018-Apr-16 05:50N 01°16' E 103°35'0 0.3
2018-Apr-16 05:29N 01°16' E 103°35'0 0.2
2018-Apr-16 04:56N 01°15' E 103°35'0 0.2
2018-Apr-16 04:17N 01°15' E 103°35'0 0.1
2018-Apr-16 03:56N 01°15' E 103°35'0 0.1
2018-Apr-16 03:26N 01°16' E 103°35'0 0.2
2018-Apr-16 02:56N 01°16' E 103°35'0 0.1
2018-Apr-16 02:14N 01°16' E 103°35'0 0.2
2018-Apr-16 01:47N 01°16' E 103°35'0 0.2
2018-Apr-16 01:29N 01°16' E 103°35'0 0.1
2018-Apr-16 00:41N 01°16' E 103°35'0 0.0
2018-Apr-16 00:26N 01°16' E 103°35'0 0.0
2018-Apr-15 23:56N 01°16' E 103°35'0 0.1
2018-Apr-15 23:23N 01°16' E 103°35'0 0.1
2018-Apr-15 22:56N 01°16' E 103°35'0 0.1
2018-Apr-15 22:26N 01°16' E 103°35'0 0.1
2018-Apr-15 21:56N 01°15' E 103°35'0 0.0
2018-Apr-15 21:26N 01°15' E 103°35'0 0.1
2018-Apr-15 20:59N 01°15' E 103°35'0 0.1
2018-Apr-15 20:29N 01°15' E 103°35'0 0.1
2018-Apr-15 19:59N 01°15' E 103°35'0 0.0
2018-Apr-15 19:29N 01°15' E 103°35'0 0.0
2018-Apr-15 18:59N 01°15' E 103°35'0 0.1
2018-Apr-15 18:29N 01°15' E 103°35'0 0.0
2018-Apr-15 17:59N 01°15' E 103°35'0 0.0
2018-Apr-15 17:29N 01°15' E 103°35'0 0.0
2018-Apr-15 16:56N 01°15' E 103°35'0 0.1
2018-Apr-15 16:29N 01°15' E 103°35'0 0.1
2018-Apr-15 15:53N 01°15' E 103°35'0 0.1
2018-Apr-15 15:14N 01°16' E 103°35'0 0.1
2018-Apr-15 14:41N 01°16' E 103°35'0 0.1
2018-Apr-15 14:26N 01°16' E 103°35'0 0.1
2018-Apr-15 13:26N 01°16' E 103°35'0 0.1
2018-Apr-15 12:29N 01°16' E 103°35'0 0.0
2018-Apr-15 11:59N 01°16' E 103°35'0 0.3
2018-Apr-15 11:29N 01°16' E 103°35'0 0.2
2018-Apr-15 10:59N 01°16' E 103°35'0 0.1
2018-Apr-15 10:20N 01°15' E 103°35'0 0.1
2018-Apr-15 09:56N 01°15' E 103°35'0 0.0
2018-Apr-15 09:29N 01°15' E 103°35'0 0.0
2018-Apr-15 08:59N 01°15' E 103°35'0 0.1
2018-Apr-15 08:29N 01°15' E 103°35'0 0.1
2018-Apr-15 07:59N 01°15' E 103°35'0 0.1
2018-Apr-15 07:29N 01°15' E 103°35'0 0.2
2018-Apr-15 06:59N 01°15' E 103°35'0 0.0
2018-Apr-15 06:26N 01°15' E 103°35'0 0.0
2018-Apr-15 05:59N 01°15' E 103°35'0 0.0
2018-Apr-15 05:29N 01°15' E 103°35'0 0.0
2018-Apr-15 04:59N 01°15' E 103°35'0 0.0
2018-Apr-15 04:29N 01°15' E 103°35'0 0.0
2018-Apr-15 03:38N 01°15' E 103°35'0 0.1
2018-Apr-15 03:29N 01°15' E 103°35'0 0.1
2018-Apr-15 02:32N 01°16' E 103°35'0 1.2
2018-Apr-15 02:29N 01°16' E 103°35'0 0.1
2018-Apr-15 01:59N 01°16' E 103°35'0 0.1
2018-Apr-15 01:29N 01°16' E 103°35'0 0.1
2018-Apr-15 00:53N 01°16' E 103°35'0 0.2
2018-Apr-15 00:11N 01°16' E 103°35'0 0.1
2018-Apr-14 23:41N 01°16' E 103°35'0 0.0
2018-Apr-14 23:29N 01°16' E 103°35'0 0.1
2018-Apr-14 22:59N 01°16' E 103°35'0 0.2
2018-Apr-14 22:29N 01°16' E 103°35'0 0.1
2018-Apr-14 21:59N 01°16' E 103°35'0 0.1
2018-Apr-14 21:29N 01°16' E 103°35'0 0.1
2018-Apr-14 20:59N 01°16' E 103°35'0 0.1
2018-Apr-14 20:26N 01°15' E 103°35'0 0.1
2018-Apr-14 19:47N 01°15' E 103°35'0 0.2
2018-Apr-14 19:29N 01°15' E 103°35'0 0.0
2018-Apr-14 18:50N 01°15' E 103°35'0 0.0
2018-Apr-14 18:23N 01°15' E 103°35'0 0.2
2018-Apr-14 17:59N 01°15' E 103°35'0 0.0
2018-Apr-14 17:23N 01°15' E 103°35'0 0.0
2018-Apr-14 16:59N 01°15' E 103°35'0 0.0
2018-Apr-14 16:29N 01°15' E 103°35'0 0.1
2018-Apr-14 15:56N 01°15' E 103°35'0 0.0
2018-Apr-14 15:29N 01°15' E 103°35'0 0.1
2018-Apr-14 14:59N 01°15' E 103°35'0 0.1
2018-Apr-14 14:05N 01°16' E 103°35'0 0.1
2018-Apr-14 13:44N 01°16' E 103°35'0 0.1
2018-Apr-14 13:29N 01°16' E 103°35'0 0.1
2018-Apr-14 12:56N 01°16' E 103°35'0 0.1
2018-Apr-14 12:29N 01°16' E 103°35'0 0.1
2018-Apr-14 11:59N 01°16' E 103°35'0 0.0
2018-Apr-14 11:29N 01°16' E 103°35'0 0.1
2018-Apr-14 10:56N 01°16' E 103°35'0 0.1
2018-Apr-14 10:29N 01°16' E 103°35'0 0.1
2018-Apr-14 09:50N 01°15' E 103°35'0 0.2
2018-Apr-14 09:17N 01°15' E 103°35'0 0.2
2018-Apr-14 08:38N 01°15' E 103°35'0 0.3
2018-Apr-14 08:23N 01°15' E 103°35'0 0.2
2018-Apr-14 07:59N 01°15' E 103°35'0 0.1
2018-Apr-14 07:29N 01°16' E 103°35'0 0.0
2018-Apr-14 06:53N 01°16' E 103°35'0 0.0
2018-Apr-14 05:41N 01°15' E 103°35'0 0.3
2018-Apr-14 05:29N 01°15' E 103°35'0 0.0
2018-Apr-14 04:56N 01°15' E 103°35'0 0.0
2018-Apr-14 04:29N 01°15' E 103°35'0 0.0
2018-Apr-14 03:59N 01°15' E 103°35'0 0.0
2018-Apr-14 03:29N 01°15' E 103°35'0 0.0
2018-Apr-14 02:47N 01°15' E 103°35'0 0.1
2018-Apr-13 23:56N 01°16' E 103°35'0 0.1
2018-Apr-13 22:32N 01°16' E 103°35'0 0.1
2018-Apr-13 22:29N 01°16' E 103°35'0 0.1
2018-Apr-13 21:44N 01°16' E 103°35'0 0.1
2018-Apr-13 21:02N 01°16' E 103°35'0 0.0
2018-Apr-13 20:56N 01°16' E 103°35'0 0.0
2018-Apr-13 20:29N 01°16' E 103°35'0 0.0
2018-Apr-13 19:44N 01°16' E 103°35'0 0.0
2018-Apr-13 19:11N 01°16' E 103°35'0 0.1
2018-Apr-13 18:56N 01°15' E 103°35'0 0.1
2018-Apr-13 18:29N 01°15' E 103°35'0 0.1
2018-Apr-13 17:50N 01°15' E 103°35'0 0.0
2018-Apr-13 17:26N 01°15' E 103°35'0 0.0
2018-Apr-13 16:53N 01°15' E 103°35'0 0.0
2018-Apr-13 16:17N 01°15' E 103°35'0 0.2
2018-Apr-13 15:56N 01°15' E 103°35'0 0.0
2018-Apr-13 15:23N 01°15' E 103°35'0 0.0
2018-Apr-13 14:41N 01°15' E 103°35'0 0.0
2018-Apr-13 14:26N 01°15' E 103°35'0 0.0
2018-Apr-13 13:59N 01°15' E 103°35'0 0.0
2018-Apr-13 13:29N 01°15' E 103°35'0 0.2
2018-Apr-13 12:53N 01°15' E 103°35'0 0.1
2018-Apr-13 11:23N 01°16' E 103°35'0 0.0
2018-Apr-13 10:56N 01°16' E 103°35'0 0.0
2018-Apr-13 10:29N 01°16' E 103°35'0 0.0
2018-Apr-13 09:38N 01°16' E 103°35'0 0.1
2018-Apr-13 09:26N 01°16' E 103°35'0 0.0
2018-Apr-13 08:29N 01°16' E 103°35'0 0.1
2018-Apr-13 07:11N 01°16' E 103°35'0 0.1
2018-Apr-13 06:44N 01°16' E 103°35'0 0.1
2018-Apr-13 06:29N 01°16' E 103°35'0 0.2
2018-Apr-13 05:59N 01°16' E 103°35'0 0.2
2018-Apr-13 05:20N 01°15' E 103°35'0 0.2
2018-Apr-13 04:59N 01°15' E 103°35'0 0.5
2018-Apr-13 04:30N 01°15' E 103°35'2 3.5
2018-Apr-13 04:00N 01°14' E 103°34'3 5.0
2018-Apr-13 03:30N 01°12' E 103°33'3 5.3
2018-Apr-13 03:00N 01°10' E 103°31'0 0.2
2018-Apr-13 02:30N 01°10' E 103°31'0 0.8
2018-Apr-13 01:57N 01°10' E 103°31'1 2.2
2018-Apr-13 01:30N 01°10' E 103°32'3 5.5
2018-Apr-13 01:00N 01°10' E 103°35'4 8.3
2018-Apr-13 00:30N 01°11' E 103°39'2 4.9
2018-Apr-13 00:00N 01°10' E 103°41'3 5.2
2018-Apr-12 23:30N 01°08' E 103°44'3 6.6
2018-Apr-12 23:00N 01°10' E 103°47'611.5
2018-Apr-12 22:30N 01°12' E 103°52'4 7.9
2018-Apr-12 22:00N 01°15' E 103°55'0 0.1
2018-Apr-12 15:02N 01°15' E 103°54'0 0.0
2018-Apr-12 14:47N 01°15' E 103°54'0 0.0
2018-Apr-12 13:50N 01°15' E 103°54'0 0.0
2018-Apr-12 13:29N 01°15' E 103°54'0 0.0
2018-Apr-12 11:59N 01°15' E 103°54'0 0.0
2018-Apr-12 09:29N 01°15' E 103°54'0 0.1
2018-Apr-12 08:05N 01°15' E 103°54'0 0.0
2018-Apr-12 07:59N 01°15' E 103°54'0 0.1
2018-Apr-12 07:20N 01°15' E 103°54'0 0.0
2018-Apr-12 06:53N 01°15' E 103°54'0 0.0
2018-Apr-12 06:26N 01°15' E 103°54'0 0.1
2018-Apr-12 05:41N 01°15' E 103°54'0 0.0
2018-Apr-12 05:29N 01°15' E 103°54'0 0.0
2018-Apr-12 04:50N 01°15' E 103°54'0 0.0
2018-Apr-12 04:29N 01°15' E 103°54'0 0.0
2018-Apr-12 03:11N 01°15' E 103°54'0 0.1
2018-Apr-12 02:56N 01°15' E 103°54'0 0.2
2018-Apr-12 02:20N 01°15' E 103°54'0 0.3
2018-Apr-12 01:53N 01°15' E 103°54'0 0.3
2018-Apr-12 01:30N 01°15' E 103°54'3 5.5
2018-Apr-12 00:59N 01°13' E 103°52'4 8.2
2018-Apr-12 00:30N 01°12' E 103°48'4 8.0
2018-Apr-12 00:00N 01°15' E 103°45'4 8.2
2018-Apr-11 23:30N 01°13' E 103°41'3 6.9
2018-Apr-11 23:00N 01°15' E 103°39'3 5.9
2018-Apr-11 22:31N 01°18' E 103°41'0 0.5
2018-Apr-11 21:57N 01°18' E 103°41'0 0.0
2018-Apr-11 21:30N 01°18' E 103°41'0 0.0
2018-Apr-11 20:54N 01°18' E 103°41'0 0.0
2018-Apr-11 20:30N 01°18' E 103°41'0 0.0
2018-Apr-11 19:54N 01°18' E 103°41'0 0.0
2018-Apr-11 19:18N 01°18' E 103°41'0 0.0
2018-Apr-11 18:51N 01°18' E 103°41'0 0.0
2018-Apr-11 18:30N 01°18' E 103°41'0 0.0
2018-Apr-11 17:57N 01°18' E 103°41'0 0.0
2018-Apr-11 17:30N 01°18' E 103°41'0 0.0
2018-Apr-11 16:51N 01°18' E 103°41'0 0.0
2018-Apr-11 16:30N 01°18' E 103°41'0 0.0
2018-Apr-11 15:57N 01°18' E 103°41'0 0.0
2018-Apr-11 15:30N 01°18' E 103°41'0 0.0
2018-Apr-11 14:57N 01°18' E 103°41'0 0.0
2018-Apr-11 14:27N 01°18' E 103°41'0 0.0
2018-Apr-11 13:54N 01°18' E 103°41'0 0.0
2018-Apr-11 13:30N 01°18' E 103°41'0 0.0
2018-Apr-11 12:51N 01°18' E 103°41'0 0.0
2018-Apr-11 12:30N 01°18' E 103°41'0 0.0
2018-Apr-11 11:54N 01°18' E 103°41'0 0.0
2018-Apr-11 11:27N 01°18' E 103°41'0 0.0
2018-Apr-11 10:57N 01°18' E 103°41'0 0.0
2018-Apr-11 10:30N 01°18' E 103°41'0 0.0
2018-Apr-11 09:57N 01°18' E 103°41'0 0.0
2018-Apr-11 09:18N 01°18' E 103°41'0 0.0
2018-Apr-11 08:57N 01°18' E 103°41'0 0.0
2018-Apr-11 08:30N 01°18' E 103°41'0 0.0
2018-Apr-11 07:42N 01°18' E 103°41'0 0.0
2018-Apr-11 07:30N 01°18' E 103°41'0 0.0
2018-Apr-11 06:48N 01°18' E 103°41'0 0.0
2018-Apr-11 06:27N 01°18' E 103°41'0 0.0
2018-Apr-11 05:57N 01°18' E 103°41'0 0.0
2018-Apr-11 05:18N 01°18' E 103°41'0 0.0
2018-Apr-11 04:57N 01°18' E 103°41'0 0.0
2018-Apr-11 04:24N 01°18' E 103°41'0 0.0
2018-Apr-11 03:54N 01°18' E 103°41'0 0.0
2018-Apr-11 03:30N 01°18' E 103°41'0 0.0
2018-Apr-11 02:57N 01°18' E 103°41'0 0.0
2018-Apr-11 02:27N 01°18' E 103°41'0 0.0
2018-Apr-11 01:57N 01°18' E 103°41'0 0.0
2018-Apr-11 01:30N 01°18' E 103°41'0 0.0
2018-Apr-11 00:57N 01°18' E 103°41'0 0.0
2018-Apr-11 00:30N 01°18' E 103°41'0 0.0
2018-Apr-10 23:57N 01°18' E 103°41'0 0.0
2018-Apr-10 23:30N 01°18' E 103°41'0 0.0
2018-Apr-10 22:57N 01°18' E 103°41'0 0.0
2018-Apr-10 22:30N 01°18' E 103°41'0 0.0
2018-Apr-10 21:57N 01°18' E 103°41'0 0.0
2018-Apr-10 21:30N 01°18' E 103°41'0 0.0
2018-Apr-10 20:57N 01°18' E 103°41'0 0.0
2018-Apr-10 20:30N 01°18' E 103°41'0 0.0
2018-Apr-10 19:57N 01°18' E 103°41'0 0.0
2018-Apr-10 19:30N 01°18' E 103°41'0 0.0
2018-Apr-10 18:57N 01°18' E 103°41'0 0.0
2018-Apr-10 18:30N 01°18' E 103°41'0 0.0
2018-Apr-10 17:57N 01°18' E 103°41'0 0.0
2018-Apr-10 17:30N 01°18' E 103°41'0 0.0
2018-Apr-10 16:57N 01°18' E 103°41'0 0.0
2018-Apr-10 16:30N 01°18' E 103°41'0 0.0
2018-Apr-10 15:54N 01°18' E 103°41'0 0.0
2018-Apr-10 15:24N 01°18' E 103°41'0 0.0
2018-Apr-10 14:57N 01°18' E 103°41'0 0.0
2018-Apr-10 14:30N 01°18' E 103°41'0 0.0
2018-Apr-10 13:57N 01°18' E 103°41'0 0.0
2018-Apr-10 13:30N 01°18' E 103°41'0 0.0
2018-Apr-10 12:57N 01°18' E 103°41'0 0.0
2018-Apr-10 12:30N 01°18' E 103°41'0 0.0
2018-Apr-10 11:57N 01°18' E 103°41'0 0.0
2018-Apr-10 11:27N 01°18' E 103°41'0 0.0
2018-Apr-10 10:51N 01°18' E 103°41'0 0.0
2018-Apr-10 10:30N 01°18' E 103°41'0 0.0
2018-Apr-10 09:48N 01°18' E 103°41'0 0.0
2018-Apr-10 09:30N 01°18' E 103°41'0 0.0
2018-Apr-10 08:57N 01°18' E 103°41'0 0.0
2018-Apr-10 08:30N 01°18' E 103°41'0 0.0
2018-Apr-10 07:57N 01°18' E 103°41'0 0.0
2018-Apr-10 07:27N 01°18' E 103°41'0 0.0
2018-Apr-10 06:54N 01°18' E 103°41'0 0.0
2018-Apr-10 06:30N 01°18' E 103°41'0 0.0
2018-Apr-10 05:57N 01°18' E 103°41'0 0.0
2018-Apr-10 05:27N 01°18' E 103°41'0 0.0
2018-Apr-10 04:57N 01°18' E 103°41'0 0.0
2018-Apr-10 04:27N 01°18' E 103°41'0 0.0
2018-Apr-10 03:57N 01°18' E 103°41'0 0.0
2018-Apr-10 03:30N 01°18' E 103°41'0 0.0
2018-Apr-10 02:58N 01°18' E 103°41'0 0.0
2018-Apr-10 02:28N 01°18' E 103°41'0 0.0
2018-Apr-10 01:55N 01°18' E 103°41'0 0.0
2018-Apr-10 01:25N 01°18' E 103°41'0 0.0
2018-Apr-10 00:58N 01°18' E 103°41'0 0.0
2018-Apr-10 00:25N 01°18' E 103°41'0 0.0
2018-Apr-09 23:55N 01°18' E 103°41'0 0.0
2018-Apr-09 23:28N 01°18' E 103°41'0 0.0
2018-Apr-09 22:58N 01°18' E 103°41'0 0.0
2018-Apr-09 22:19N 01°18' E 103°41'0 0.0
2018-Apr-09 21:58N 01°18' E 103°41'0 0.0
2018-Apr-09 21:25N 01°18' E 103°41'0 0.0
2018-Apr-09 20:55N 01°18' E 103°41'0 0.0
2018-Apr-09 20:25N 01°18' E 103°41'0 0.0
2018-Apr-09 19:58N 01°18' E 103°41'0 0.0
2018-Apr-09 19:25N 01°18' E 103°41'0 0.0
2018-Apr-09 18:58N 01°18' E 103°41'0 0.0
2018-Apr-09 18:25N 01°18' E 103°41'0 0.1
2018-Apr-09 18:01N 01°18' E 103°41'1 2.2
2018-Apr-09 17:31N 01°17' E 103°40'2 4.1
2018-Apr-09 17:00N 01°15' E 103°39'3 5.9
2018-Apr-09 16:30N 01°12' E 103°39'3 5.9
2018-Apr-09 16:01N 01°10' E 103°41'510.2
2018-Apr-09 15:29N 01°10' E 103°47'612.3
2018-Apr-09 15:00N 01°13' E 103°52'5 9.3
2018-Apr-09 14:31N 01°15' E 103°56'1 0.6
2018-Apr-09 12:56N 01°15' E 103°55'0 0.0
2018-Apr-09 05:26N 01°15' E 103°55'0 0.0
2018-Apr-09 02:05N 01°15' E 103°55'0 0.0
2018-Apr-09 01:59N 01°15' E 103°55'0 0.0
2018-Apr-09 01:26N 01°15' E 103°55'0 0.0
2018-Apr-09 00:50N 01°15' E 103°55'0 0.1
2018-Apr-08 23:44N 01°15' E 103°55'0 0.2
2018-Apr-08 23:29N 01°15' E 103°55'0 0.0
2018-Apr-08 17:01N 01°15' E 103°55'0 0.0
2018-Apr-08 16:41N 01°15' E 103°55'0 0.0
2018-Apr-08 09:55N 01°15' E 103°55'0 0.1
2018-Apr-08 09:25N 01°15' E 103°55'0 0.1
2018-Apr-08 08:59N 01°15' E 103°55'0 0.0
2018-Apr-08 08:28N 01°15' E 103°55'0 0.0
2018-Apr-08 07:55N 01°15' E 103°55'0 0.0
2018-Apr-08 07:16N 01°15' E 103°55'0 0.1
2018-Apr-08 06:46N 01°15' E 103°55'0 0.2
2018-Apr-08 06:28N 01°15' E 103°55'0 0.2
2018-Apr-08 05:55N 01°15' E 103°55'0 0.1
2018-Apr-08 05:22N 01°16' E 103°55'0 0.0
2018-Apr-08 04:37N 01°15' E 103°55'0 0.1
2018-Apr-08 04:10N 01°15' E 103°55'0 0.0
2018-Apr-08 03:49N 01°15' E 103°55'0 0.1
2018-Apr-08 03:23N 01°15' E 103°55'0 0.2
2018-Apr-08 02:59N 01°15' E 103°55'0 0.0
2018-Apr-08 02:23N 01°15' E 103°55'0 0.2
2018-Apr-08 01:59N 01°15' E 103°55'0 0.0
2018-Apr-08 00:35N 01°15' E 103°55'0 0.6
2018-Apr-08 00:29N 01°15' E 103°55'0 0.0
2018-Apr-07 23:59N 01°15' E 103°55'0 0.0
2018-Apr-07 23:29N 01°15' E 103°55'0 0.0
2018-Apr-07 22:50N 01°15' E 103°55'0 0.0
2018-Apr-07 22:29N 01°15' E 103°55'0 0.1
2018-Apr-07 21:41N 01°15' E 103°55'0 0.0
2018-Apr-07 21:23N 01°15' E 103°55'0 0.0
2018-Apr-07 15:56N 01°15' E 103°55'0 0.0
2018-Apr-07 09:17N 01°15' E 103°55'0 0.1
2018-Apr-07 08:56N 01°15' E 103°55'0 0.0
2018-Apr-07 08:14N 01°16' E 103°55'0 0.1
2018-Apr-07 07:17N 01°16' E 103°55'0 0.1
2018-Apr-07 06:11N 01°16' E 103°55'  

Dump ship's entire track history